Nickajack Observed Data For Previous 48 Hours

Caption
Day and Hour Reservoir Elevation (behind dam)* Tailwater Elevation (below dam)* Average Hourly Discharge*
10/16/2018 1 AM CDT 633.58 598.03 45,504
10/16/2018 2 AM CDT 633.49 597.88 45,539
10/16/2018 3 AM CDT 633.63 597.01 37,227
10/16/2018 4 AM CDT 633.55 596.58 28,969
10/16/2018 5 AM CDT 633.47 596.30 28,895
10/16/2018 6 AM CDT 633.39 596.11 28,912
10/16/2018 7 AM CDT 633.36 595.99 28,832
10/16/2018 8 AM CDT 633.55 595.91 28,664
10/16/2018 9 AM CDT 633.67 595.87 28,715
10/16/2018 10 AM CDT 633.81 595.84 28,611
10/16/2018 11 AM CDT 633.96 595.85 28,596
10/16/2018 12 PM CDT 633.99 596.56 37,181
10/16/2018 1 PM CDT 633.97 596.81 42,029
10/16/2018 2 PM CDT 634.05 597.00 42,136
10/16/2018 3 PM CDT 634.09 597.11 42,168
10/16/2018 4 PM CDT 634.14 597.18 42,200
10/16/2018 5 PM CDT 634.19 597.23 42,213
10/16/2018 6 PM CDT 634.23 597.28 42,195
10/16/2018 7 PM CDT 634.28 597.32 42,249
10/16/2018 8 PM CDT 634.23 598.22 53,769
10/16/2018 9 PM CDT 634.20 598.49 57,394
10/16/2018 10 PM CDT 634.09 598.68 57,486
10/16/2018 11 PM CDT 633.98 598.80 57,437
10/17/2018 12 AM CDT 634.04 598.26 51,356
10/17/2018 1 AM CDT 633.93 598.00 43,865
10/17/2018 2 AM CDT 633.91 597.10 35,052
10/17/2018 3 AM CDT 633.83 596.64 28,870
10/17/2018 4 AM CDT 633.75 596.37 28,890
10/17/2018 5 AM CDT 633.67 596.20 28,918
10/17/2018 6 AM CDT 633.58 596.09 28,787
10/17/2018 7 AM CDT 633.53 596.00 28,659
10/17/2018 8 AM CDT 633.64 595.94 28,836
10/17/2018 9 AM CDT 633.85 595.91 28,706
10/17/2018 10 AM CDT 633.95 595.85 28,654
10/17/2018 11 AM CDT 633.98 596.55 37,527
10/17/2018 12 PM CDT 633.95 596.83 42,068
10/17/2018 1 PM CDT 634.05 596.80 38,221
10/17/2018 2 PM CDT 634.09 597.13 42,240
10/17/2018 3 PM CDT 634.12 597.10 42,219
10/17/2018 4 PM CDT 634.18 597.16 42,209
10/17/2018 5 PM CDT 634.20 597.23 42,441
10/17/2018 6 PM CDT 634.24 597.21 42,183
10/17/2018 7 PM CDT 634.33 597.23 42,295
10/17/2018 8 PM CDT 634.42 597.23 42,295
10/17/2018 9 PM CDT 634.50 597.25 42,163
10/17/2018 10 PM CDT 634.58 597.24 42,099
10/17/2018 11 PM CDT 634.57 597.24 42,124
10/18/2018 12 AM CDT 634.55 597.23 42,062

Elevations are in feet above sea level. Discharges are in cubic feet per second and are reported at the end of the hour.